createdAt,value
2022-07-28T00:03:04.511Z,0.5
2022-07-28T00:04:35.261Z,0.5
2022-07-28T00:09:35.947Z,0.5
2022-07-28T00:14:36.758Z,0.6
2022-07-28T00:19:37.455Z,0.7
2022-07-28T00:24:37.958Z,0.5
2022-07-28T00:29:49.238Z,0.4
2022-07-28T00:34:39.443Z,0.5
2022-07-28T00:39:39.982Z,0.5
2022-07-28T00:44:40.650Z,0.4
2022-07-28T00:49:41.866Z,0.4
2022-07-28T00:54:42.011Z,0.4
2022-07-28T00:59:42.750Z,0.4
2022-07-28T01:04:43.461Z,0.5
2022-07-28T01:09:44.102Z,0.4
2022-07-28T01:14:44.946Z,0.6
2022-07-28T01:19:45.698Z,0.5
2022-07-28T01:24:46.302Z,0.4
2022-07-28T01:29:46.971Z,0.5
2022-07-28T01:34:47.993Z,0.5
2022-07-28T01:39:48.445Z,0.5
2022-07-28T01:44:49.034Z,0.5
2022-07-28T01:49:50.679Z,0.3
2022-07-28T01:54:50.339Z,0.4
2022-07-28T01:59:50.962Z,0.4
2022-07-28T02:04:51.903Z,0.5
2022-07-28T02:09:52.451Z,0.5
2022-07-28T02:14:52.940Z,0.4
2022-07-28T02:19:53.772Z,0.7
2022-07-28T02:24:54.496Z,0.4
2022-07-28T02:29:55.040Z,0.4
2022-07-28T02:34:55.830Z,0.4
2022-07-28T02:40:00.165Z,0.5
2022-07-28T02:44:57.002Z,0.4
2022-07-28T02:49:59.164Z,0.3
2022-07-28T02:54:58.380Z,0.5
2022-07-28T02:59:59.056Z,0.4
2022-07-28T03:04:59.915Z,0.4
2022-07-28T03:10:00.568Z,0.3
2022-07-28T03:15:01.184Z,0.5
2022-07-28T03:20:01.982Z,0.4
2022-07-28T03:25:02.556Z,0.4
2022-07-28T03:30:03.795Z,0.3
2022-07-28T03:35:04.123Z,0.5
2022-07-28T03:40:04.599Z,0.4
2022-07-28T03:45:05.175Z,0.4
2022-07-28T03:50:06.752Z,0.5
2022-07-28T03:55:06.602Z,0.4
2022-07-28T04:00:09.662Z,0.5
2022-07-28T04:05:08.169Z,0.4
2022-07-28T04:10:08.812Z,0.6
2022-07-28T04:15:09.502Z,0.5
2022-07-28T04:20:10.144Z,0.5
2022-07-28T04:25:10.792Z,0.5
2022-07-28T04:30:11.559Z,0.4
2022-07-28T04:35:17.104Z,0.4
2022-07-28T04:40:12.848Z,0.5
2022-07-28T04:45:13.553Z,0.5
2022-07-28T04:50:14.511Z,0.6
2022-07-28T04:55:14.794Z,0.5
2022-07-28T05:00:15.648Z,0.4
2022-07-28T05:05:16.247Z,0.5
2022-07-28T05:10:16.863Z,0.5
2022-07-28T05:15:17.552Z,0.7
2022-07-28T05:20:18.482Z,0.7
2022-07-28T05:25:18.892Z,0.9
2022-07-28T05:30:19.692Z,0.6
2022-07-28T05:35:20.544Z,0.7
2022-07-28T05:40:21.001Z,0.7
2022-07-28T05:45:21.665Z,0.9
2022-07-28T05:50:22.862Z,0.8
2022-07-28T05:55:23.005Z,1.1
2022-07-28T06:00:23.718Z,1.0
2022-07-28T06:05:24.499Z,0.8
2022-07-28T06:10:25.123Z,0.9
2022-07-28T06:15:25.852Z,1.1
2022-07-28T06:20:26.548Z,1.1
2022-07-28T06:25:27.100Z,1.0
2022-07-28T06:30:27.963Z,1.3
2022-07-28T06:35:28.651Z,1.0
2022-07-28T06:40:29.178Z,1.0
2022-07-28T06:45:29.942Z,1.2
2022-07-28T06:50:31.055Z,1.3
2022-07-28T06:55:35.081Z,1.5
2022-07-28T07:00:32.235Z,1.3
2022-07-28T07:05:32.972Z,1.5
2022-07-28T07:10:33.494Z,1.4
2022-07-28T07:15:34.971Z,1.3
2022-07-28T07:20:35.186Z,1.3
2022-07-28T07:25:35.690Z,1.5
2022-07-28T07:30:36.258Z,1.4
2022-07-28T07:35:37.032Z,1.0
2022-07-28T07:40:37.849Z,1.4
2022-07-28T07:45:38.506Z,1.5
2022-07-28T07:50:39.508Z,1.4
2022-07-28T07:55:39.814Z,1.3
2022-07-28T08:00:40.770Z,1.4
2022-07-28T08:05:41.384Z,1.2
2022-07-28T08:10:41.913Z,1.6
2022-07-28T08:15:42.669Z,1.3
2022-07-28T08:20:43.585Z,1.5
2022-07-28T08:25:43.929Z,1.3
2022-07-28T08:30:44.616Z,1.3
2022-07-28T08:35:45.412Z,1.1
2022-07-28T08:40:45.951Z,1.3
2022-07-28T08:45:46.631Z,1.5
2022-07-28T08:50:47.589Z,1.3
2022-07-28T08:55:48.019Z,1.4
2022-07-28T09:00:48.922Z,1.3
2022-07-28T09:05:49.639Z,1.4
2022-07-28T09:10:50.161Z,1.2
2022-07-28T09:15:50.948Z,1.3
2022-07-28T09:20:51.723Z,1.3
2022-07-28T09:26:10.930Z,1.2
2022-07-28T09:30:54.450Z,1.2
2022-07-28T09:35:53.651Z,1.3
2022-07-28T09:40:54.453Z,1.2
2022-07-28T09:45:55.080Z,1.2
2022-07-28T09:50:55.825Z,1.3
2022-07-28T09:55:56.529Z,1.2
2022-07-28T10:00:57.323Z,1.4
2022-07-28T10:05:58.006Z,1.0
2022-07-28T10:10:58.846Z,1.3
2022-07-28T10:15:59.813Z,1.0
2022-07-28T10:21:00.193Z,1.1
2022-07-28T10:26:00.913Z,1.2
2022-07-28T10:31:05.563Z,1.3
2022-07-28T10:36:02.547Z,1.1
2022-07-28T10:41:03.351Z,1.1
2022-07-28T10:46:07.524Z,1.2
2022-07-28T10:51:06.058Z,1.1
2022-07-28T10:56:05.677Z,1.1
2022-07-28T11:01:32.439Z,1.3
2022-07-28T11:06:07.006Z,1.2
2022-07-28T11:11:09.063Z,1.0
2022-07-28T11:16:08.515Z,1.2
2022-07-28T11:21:09.343Z,1.2
2022-07-28T11:26:11.962Z,1.2
2022-07-28T11:31:11.435Z,1.1
2022-07-28T11:36:12.225Z,1.2
2022-07-28T11:41:12.539Z,1.4
2022-07-28T11:46:13.172Z,1.3
2022-07-28T11:51:14.027Z,1.3
2022-07-28T11:56:14.896Z,1.2
2022-07-28T12:01:18.171Z,1.1
2022-07-28T12:06:16.266Z,1.3
2022-07-28T12:11:17.075Z,1.0
2022-07-28T12:16:17.792Z,1.2
2022-07-28T12:21:18.633Z,0.9
2022-07-28T12:26:19.214Z,1.0
2022-07-28T12:31:20.455Z,1.2
2022-07-28T12:36:20.770Z,1.0
2022-07-28T12:41:21.781Z,1.0
2022-07-28T12:46:22.202Z,1.2
2022-07-28T12:51:23.124Z,1.1
2022-07-28T12:56:23.817Z,1.2
2022-07-28T13:01:24.650Z,0.9
2022-07-28T13:06:26.069Z,0.8
2022-07-28T13:11:43.128Z,1.0
2022-07-28T13:16:27.297Z,0.9
2022-07-28T13:21:27.978Z,0.7
2022-07-28T13:26:28.566Z,1.0
2022-07-28T13:31:30.168Z,0.8
2022-07-28T13:36:30.161Z,0.9
2022-07-28T13:41:48.697Z,1.0
2022-07-28T13:46:31.663Z,0.9
2022-07-28T13:51:34.723Z,0.9
2022-07-28T13:56:33.197Z,0.8
2022-07-28T14:01:35.058Z,0.9
2022-07-28T14:06:34.832Z,0.8
2022-07-28T14:11:36.465Z,0.9
2022-07-28T14:16:36.558Z,0.9
2022-07-28T14:21:37.322Z,0.9
2022-07-28T14:26:37.963Z,0.9
2022-07-28T14:31:39.386Z,1.0
2022-07-28T14:36:39.698Z,1.0
2022-07-28T14:41:40.532Z,0.9
2022-07-28T14:46:41.156Z,1.1
2022-07-28T14:51:44.756Z,1.6
2022-07-28T14:56:43.224Z,0.9
2022-07-28T15:01:43.982Z,1.1
2022-07-28T15:06:44.535Z,1.0
2022-07-28T15:11:45.285Z,0.9
2022-07-28T15:16:46.185Z,0.8
2022-07-28T15:21:47.143Z,0.9
2022-07-28T15:26:47.694Z,1.1
2022-07-28T15:31:49.176Z,1.0
2022-07-28T15:36:49.757Z,1.1
2022-07-28T15:41:50.071Z,1.2
2022-07-28T15:46:50.919Z,0.9
2022-07-28T15:51:52.024Z,1.0
2022-07-28T15:56:52.855Z,0.9
2022-07-28T16:01:53.695Z,0.8
2022-07-28T16:06:54.401Z,0.9
2022-07-28T16:11:55.077Z,0.9
2022-07-28T16:16:57.043Z,1.1
2022-07-28T16:21:56.915Z,0.9
2022-07-28T16:26:57.688Z,1.0
2022-07-28T16:31:58.833Z,0.9
2022-07-28T16:37:01.188Z,0.8
2022-07-28T16:42:00.140Z,1.0
2022-07-28T16:47:00.974Z,0.9
2022-07-28T16:52:01.853Z,0.9
2022-07-28T16:57:02.806Z,1.0
2022-07-28T17:02:03.680Z,0.9
2022-07-28T17:07:04.745Z,0.9
2022-07-28T17:12:05.243Z,0.9
2022-07-28T17:17:06.093Z,0.8
2022-07-28T17:22:06.980Z,0.7
2022-07-28T17:27:37.163Z,0.9
2022-07-28T17:32:09.760Z,1.1
2022-07-28T17:37:09.608Z,1.0
2022-07-28T17:42:10.391Z,1.1
2022-07-28T17:47:11.268Z,0.8
2022-07-28T17:52:12.254Z,0.9
2022-07-28T17:57:12.970Z,1.0
2022-07-28T18:02:13.927Z,1.0
2022-07-28T18:07:14.925Z,0.9
2022-07-28T18:12:15.639Z,1.0
2022-07-28T18:17:16.492Z,0.8
2022-07-28T18:22:17.588Z,0.9
2022-07-28T18:27:18.365Z,0.8
2022-07-28T18:32:19.118Z,1.0
2022-07-28T18:37:20.298Z,0.9
2022-07-28T18:42:20.897Z,0.9
2022-07-28T18:47:21.756Z,1.3
2022-07-28T18:52:22.802Z,0.9
2022-07-28T18:57:23.552Z,1.0
2022-07-28T19:02:26.383Z,1.1
2022-07-28T19:07:25.616Z,0.8
2022-07-28T19:12:26.475Z,0.8
2022-07-28T19:17:27.132Z,1.0
2022-07-28T19:22:28.241Z,1.1
2022-07-28T19:27:30.884Z,1.1
2022-07-28T19:32:30.788Z,0.8
2022-07-28T19:37:31.028Z,0.8
2022-07-28T19:42:31.846Z,0.9
2022-07-28T19:47:32.519Z,1.0
2022-07-28T19:52:33.688Z,1.0
2022-07-28T19:57:50.107Z,1.0
2022-07-28T20:02:35.294Z,1.0
2022-07-28T20:07:36.122Z,0.8
2022-07-28T20:12:37.220Z,0.9
2022-07-28T20:17:39.430Z,1.0
2022-07-28T20:22:39.417Z,0.9
2022-07-28T20:27:40.459Z,0.8
2022-07-28T20:32:40.862Z,0.9
2022-07-28T20:37:41.371Z,0.8
2022-07-28T20:42:42.194Z,0.9
2022-07-28T20:47:43.056Z,1.0
2022-07-28T20:52:44.147Z,1.0
2022-07-28T20:57:53.770Z,0.9
2022-07-28T21:02:45.868Z,1.1
2022-07-28T21:08:04.950Z,1.0
2022-07-28T21:12:47.444Z,1.0
2022-07-28T21:17:48.223Z,0.9
2022-07-28T21:22:49.215Z,1.0
2022-07-28T21:27:49.833Z,0.9
2022-07-28T21:32:54.444Z,1.3
2022-07-28T21:37:51.537Z,1.1
2022-07-28T21:42:52.393Z,1.0
2022-07-28T21:47:53.159Z,0.9
2022-07-28T21:52:54.096Z,1.2
2022-07-28T21:57:54.913Z,1.1
2022-07-28T22:02:55.666Z,0.9
2022-07-28T22:07:56.525Z,1.1
2022-07-28T22:12:57.216Z,1.0
2022-07-28T22:17:58.009Z,1.0
2022-07-28T22:22:58.957Z,1.0
2022-07-28T22:27:59.747Z,1.2
2022-07-28T22:33:01.262Z,1.0
2022-07-28T22:38:01.426Z,1.2
2022-07-28T22:43:02.133Z,1.3
2022-07-28T22:48:03.073Z,1.6
2022-07-28T22:53:03.945Z,1.0
2022-07-28T22:58:05.502Z,1.0
2022-07-28T23:03:05.694Z,1.3
2022-07-28T23:08:06.418Z,1.3
2022-07-28T23:13:07.238Z,1.3
2022-07-28T23:18:08.107Z,1.3
2022-07-28T23:23:09.035Z,1.4
2022-07-28T23:28:10.047Z,1.3
2022-07-28T23:33:54.659Z,1.4
2022-07-28T23:38:11.737Z,1.4
2022-07-28T23:43:12.401Z,1.4
2022-07-28T23:48:13.183Z,1.7
2022-07-28T23:53:14.493Z,1.6
2022-07-28T23:58:14.841Z,1.5
